Des Moines International Airport
KDSM : now visible

Airfield :











YOU CAN JOIN US ON...

 
LOGIN :

Register | Disclaimer

   EN    FR    IT 

 









Legend :    VFR   Marginal VFR   IFR   Intensive IFR   Very Intensive IFR
Visi :
Ceiling :
>= 8 km
>= 3000ft
5 to 8 km
1000 to 3000 ft
1500m to 5 km
500 to 1000 ft
800 to 1500m
200 to 500 ft
< 800m
< 200 ft
Symbols :   Thunderstorms  Fog  Heavy snow  Heavy precipitations  Wind > 20 kt






- Airport Elevation : 958 ft
- IATA code : DSM


KDSM - Des Moines International

CURRENT METAR :
  • 040854Z 21006KT 10SM SCT250 M05/M11 A3026 RMK AO2 SLP259 T10501111 56020

EXPIRED METARs :
  • 040754Z 19004KT 10SM SCT250 M05/M12 A3028 RMK AO2 SLP267 T10501117
  • 040654Z 19006KT 10SM SCT250 M06/M12 A3028 RMK AO2 SLP268 T10561117

TAF KDSM
Valid from the 04 at 06:00 until the 05 at 06:00 UTC


040522Z 0406/0506 21006KT P6SM FEW250
FM041700 25008KT P6SM SCT250
KZMP FIR / North America



MET'MAP, your aeronautical weather chart ! - Copyright ORBIFLY December 2007 - Disclaimer

ORBIFLY MET'MAP TEAM :

Programming & Development : Alexandra Zaïnal
Original concept : Baudouin d'Aumeries
Technical & hardware support : Manuel Goepfert
Assistance : Marc-Olivier Méhu




SOURCES & CREDITS :

   NOAA       Earth
Advisory